Terminal Aerodrome Forecast
Issued by NWS Charleston, WV

Current Version | Previous Version | Graphics & Text | Print | Product List | Glossary On
Versions: 1 2 3 4 5 6 7 8 9 10 11 12 13 14 15 16 17 18 19 20 21 22 23 24 25
000
FTUS41 KRLX 011100
TAFBKW
TAF
KBKW 011121Z 0112/0212 33007KT 2SM BR OVC002
     FM011300 33006KT P6SM OVC008
     FM011500 34005KT P6SM OVC014
     FM012000 34008KT P6SM BKN040
     FM020200 33004KT P6SM SCT040
     FM020700 VRB03KT P6SM FEW250
     FM020800 VRB03KT 5SM BR FEW250=

USA.gov is the U.S. government's official web portal to all federal, state and local government web resources and services.